Time;durP1;ratioP1;P1;durP2;ratioP2;P2;SDS_P1;SDS_P2;PMS_P1;PMS_P2;Temp;Humidity;BMP_temperature;BMP_pressure;BME280_temperature;BME280_humidity;BME280_pressure;Samples;Min_cycle;Max_cycle;Signal;HPM_P1;HPM_P2
2022/05/11 00:00:42;;;;;;;4.60;3.97;;;;;;;;;;4988487;28;20380;-73
2022/05/11 00:03:07;;;;;;;4.75;4.15;;;;;;;;;;4989002;28;20030;-72
2022/05/11 00:05:33;;;;;;;5.30;4.22;;;;;;;;;;4987986;28;20113;-75
2022/05/11 00:07:58;;;;;;;5.15;4.68;;;;;;;;;;4987589;28;20042;-72
2022/05/11 00:10:24;;;;;;;6.20;4.10;;;;;;;;;;4989724;28;20045;-74
2022/05/11 00:12:50;;;;;;;5.95;4.28;;;;;;;;;;4971248;28;20554;-75
2022/05/11 00:15:20;;;;;;;5.25;4.63;;;;;;;;;;4988200;28;20046;-72
2022/05/11 00:17:46;;;;;;;5.88;4.18;;;;;;;;;;4984089;28;20485;-73
2022/05/11 00:20:13;;;;;;;6.32;4.43;;;;;;;;;;4983656;28;20041;-72
2022/05/11 00:22:38;;;;;;;5.10;3.85;;;;;;;;;;4989799;28;20061;-76
2022/05/11 00:25:06;;;;;;;4.55;4.13;;;;;;;;;;4990927;28;20394;-75
2022/05/11 00:27:32;;;;;;;5.85;4.55;;;;;;;;;;4989872;28;20172;-74
2022/05/11 00:29:57;;;;;;;4.93;4.40;;;;;;;;;;4988880;28;20083;-74
2022/05/11 00:32:25;;;;;;;4.82;4.25;;;;;;;;;;4989808;28;20437;-73
2022/05/11 00:34:52;;;;;;;4.95;3.88;;;;;;;;;;4988061;28;20089;-74
2022/05/11 00:37:19;;;;;;;4.53;3.90;;;;;;;;;;4988426;28;20042;-74
2022/05/11 00:39:45;;;;;;;5.15;4.35;;;;;;;;;;4991318;28;20031;-73
2022/05/11 00:42:10;;;;;;;5.78;4.55;;;;;;;;;;4992454;28;20054;-73
2022/05/11 00:44:36;;;;;;;8.40;4.60;;;;;;;;;;4990463;28;20056;-75
2022/05/11 00:47:10;;;;;;;8.15;4.40;;;;;;;;;;4991501;28;20270;-75
2022/05/11 00:49:45;;;;;;;5.15;4.40;;;;;;;;;;4991869;28;20034;-75
2022/05/11 00:52:27;;;;;;;7.57;4.53;;;;;;;;;;4992428;28;20043;-74
2022/05/11 00:54:59;;;;;;;4.27;3.87;;;;;;;;;;4990166;28;20034;-74
2022/05/11 00:57:48;;;;;;;7.80;4.10;;;;;;;;;;4991868;28;20034;-75
2022/05/11 01:00:14;;;;;;;5.47;4.00;;;;;;;;;;4991453;28;20049;-76
2022/05/11 01:02:43;;;;;;;7.00;4.40;;;;;;;;;;4991835;28;20045;-74
2022/05/11 01:05:09;;;;;;;4.53;4.13;;;;;;;;;;4987558;28;20045;-73
2022/05/11 01:07:35;;;;;;;5.70;3.88;;;;;;;;;;4990471;28;20038;-73
2022/05/11 01:10:02;;;;;;;8.30;4.25;;;;;;;;;;4990027;28;20039;-73
2022/05/11 01:12:32;;;;;;;4.88;3.88;;;;;;;;;;4992240;28;20525;-75
2022/05/11 01:15:00;;;;;;;4.85;4.13;;;;;;;;;;4988465;28;20038;-73
2022/05/11 01:17:28;;;;;;;6.38;4.70;;;;;;;;;;4991381;28;20022;-75
2022/05/11 01:19:54;;;;;;;6.60;4.28;;;;;;;;;;4989545;28;20402;-75
2022/05/11 01:22:46;;;;;;;5.70;3.70;;;;;;;;;;4992620;28;20038;-74
2022/05/11 01:25:13;;;;;;;4.70;4.03;;;;;;;;;;4986273;28;20038;-75
2022/05/11 01:27:40;;;;;;;4.95;4.18;;;;;;;;;;4990344;28;20034;-75
2022/05/11 01:30:11;;;;;;;7.22;4.15;;;;;;;;;;4988271;28;20034;-73
2022/05/11 01:32:37;;;;;;;4.45;3.75;;;;;;;;;;4989307;28;20516;-74
2022/05/11 01:35:27;;;;;;;4.45;4.03;;;;;;;;;;4989048;28;21457;-75
2022/05/11 01:38:31;;;;;;;4.78;4.10;;;;;;;;;;4990920;28;20046;-75
2022/05/11 01:40:57;;;;;;;4.97;4.05;;;;;;;;;;4969967;28;20113;-75
2022/05/11 01:43:25;;;;;;;5.65;4.43;;;;;;;;;;4985523;28;20117;-74
2022/05/11 01:45:50;;;;;;;5.90;4.18;;;;;;;;;;4989256;28;20125;-75
2022/05/11 01:48:16;;;;;;;4.75;4.20;;;;;;;;;;4990579;28;20197;-75
2022/05/11 01:50:42;;;;;;;5.80;3.95;;;;;;;;;;4991182;28;20105;-75
2022/05/11 01:53:08;;;;;;;5.00;4.40;;;;;;;;;;4990248;28;20482;-77
2022/05/11 01:55:34;;;;;;;5.95;4.10;;;;;;;;;;4990302;28;20515;-74
2022/05/11 01:58:00;;;;;;;5.32;4.18;;;;;;;;;;4987415;28;20038;-74
2022/05/11 02:00:26;;;;;;;5.97;4.25;;;;;;;;;;4989818;28;20061;-75
2022/05/11 02:02:52;;;;;;;5.70;4.03;;;;;;;;;;4989586;28;20025;-75
2022/05/11 02:08:03;;;;;;;4.82;3.78;;;;;;;;;;4990783;28;20403;-74
2022/05/11 02:10:29;;;;;;;4.53;4.00;;;;;;;;;;4990412;28;20046;-76
2022/05/11 02:12:58;;;;;;;5.65;4.43;;;;;;;;;;4990437;28;20038;-74
2022/05/11 02:15:25;;;;;;;4.93;3.88;;;;;;;;;;4991180;28;20065;-73
2022/05/11 02:17:51;;;;;;;5.05;3.80;;;;;;;;;;4989797;28;20069;-74
2022/05/11 02:20:18;;;;;;;5.15;3.88;;;;;;;;;;4991283;28;20438;-74
2022/05/11 02:22:44;;;;;;;5.72;4.13;;;;;;;;;;4990694;28;20084;-74
2022/05/11 02:25:12;;;;;;;5.38;3.85;;;;;;;;;;4991993;28;20041;-74
2022/05/11 02:27:38;;;;;;;4.32;3.92;;;;;;;;;;4990824;28;20037;-76
2022/05/11 02:30:07;;;;;;;4.80;4.30;;;;;;;;;;4987541;28;20069;-76
2022/05/11 02:32:33;;;;;;;5.45;3.78;;;;;;;;;;4991808;28;20026;-76
2022/05/11 02:35:13;;;;;;;7.15;4.50;;;;;;;;;;4990880;28;20478;-75
2022/05/11 02:38:00;;;;;;;5.28;4.20;;;;;;;;;;4989619;28;20042;-76
2022/05/11 02:40:28;;;;;;;6.40;4.28;;;;;;;;;;4989494;28;20406;-76
2022/05/11 02:42:54;;;;;;;6.15;4.28;;;;;;;;;;4984202;28;20039;-76
2022/05/11 02:45:22;;;;;;;4.70;4.30;;;;;;;;;;4986922;28;20125;-76
2022/05/11 02:47:48;;;;;;;5.25;4.32;;;;;;;;;;4989218;28;20030;-76
2022/05/11 02:50:20;;;;;;;4.20;3.80;;;;;;;;;;4992618;28;20060;-75
2022/05/11 02:52:46;;;;;;;5.00;4.28;;;;;;;;;;4993406;28;20069;-75
2022/05/11 02:55:12;;;;;;;5.13;4.28;;;;;;;;;;4990220;28;20406;-76
2022/05/11 02:57:37;;;;;;;8.45;4.30;;;;;;;;;;4992412;28;20494;-75
2022/05/11 03:00:05;;;;;;;4.43;4.03;;;;;;;;;;4990774;28;20121;-75
2022/05/11 03:02:30;;;;;;;4.53;4.13;;;;;;;;;;4991154;28;20037;-75
2022/05/11 03:04:56;;;;;;;4.88;4.43;;;;;;;;;;4989677;28;20030;-74
2022/05/11 03:07:21;;;;;;;4.95;4.45;;;;;;;;;;4988847;28;20030;-76
2022/05/11 03:09:47;;;;;;;5.57;4.43;;;;;;;;;;4988969;28;20045;-75
2022/05/11 03:12:13;;;;;;;6.07;4.28;;;;;;;;;;4988687;28;20144;-76
2022/05/11 03:14:39;;;;;;;6.90;4.60;;;;;;;;;;4989890;28;20018;-76
2022/05/11 03:17:05;;;;;;;7.22;4.43;;;;;;;;;;4989883;28;20043;-76
2022/05/11 03:19:31;;;;;;;6.03;4.45;;;;;;;;;;4990843;28;20545;-76
2022/05/11 03:21:57;;;;;;;5.18;4.43;;;;;;;;;;4986484;28;20060;-75
2022/05/11 03:24:23;;;;;;;11.73;4.53;;;;;;;;;;4989375;28;20045;-76
2022/05/11 03:26:48;;;;;;;5.82;4.68;;;;;;;;;;4991258;28;20538;-75
2022/05/11 03:29:14;;;;;;;4.70;4.30;;;;;;;;;;4987281;28;20030;-75
2022/05/11 03:31:40;;;;;;;5.10;4.60;;;;;;;;;;4990816;28;20161;-74
2022/05/11 03:36:53;;;;;;;8.40;4.45;;;;;;;;;;4984832;28;20069;-76
2022/05/11 03:39:18;;;;;;;5.03;4.40;;;;;;;;;;4988977;28;20035;-76
2022/05/11 03:41:47;;;;;;;5.53;5.00;;;;;;;;;;4988214;28;20054;-75
2022/05/11 03:44:13;;;;;;;7.97;4.45;;;;;;;;;;4989042;28;20049;-76
2022/05/11 03:46:39;;;;;;;12.23;8.50;;;;;;;;;;4989822;28;20490;-76
2022/05/11 03:49:05;;;;;;;11.57;4.90;;;;;;;;;;4989291;28;20120;-76
2022/05/11 03:51:30;;;;;;;5.72;4.40;;;;;;;;;;4988901;28;20410;-76
2022/05/11 03:53:56;;;;;;;5.20;4.63;;;;;;;;;;4989385;28;20045;-75
2022/05/11 03:56:21;;;;;;;6.32;4.80;;;;;;;;;;4993399;28;20503;-75
2022/05/11 03:58:47;;;;;;;5.53;4.47;;;;;;;;;;4993250;28;20114;-75
2022/05/11 04:01:13;;;;;;;5.53;4.93;;;;;;;;;;4991318;28;20138;-76
2022/05/11 04:03:39;;;;;;;6.63;4.82;;;;;;;;;;4991251;28;20062;-76
2022/05/11 04:06:04;;;;;;;4.88;4.47;;;;;;;;;;5013047;28;20049;-75
2022/05/11 04:08:30;;;;;;;6.07;4.60;;;;;;;;;;4992293;28;20030;-76
2022/05/11 04:10:55;;;;;;;6.38;4.40;;;;;;;;;;4991650;28;20129;-76
2022/05/11 04:13:21;;;;;;;5.85;4.45;;;;;;;;;;4995357;28;20402;-75
2022/05/11 04:15:51;;;;;;;6.47;4.60;;;;;;;;;;4989892;28;20061;-76
2022/05/11 04:18:18;;;;;;;5.55;4.57;;;;;;;;;;4993805;28;20122;-76
2022/05/11 04:20:43;;;;;;;8.85;4.70;;;;;;;;;;4992700;28;20042;-75
2022/05/11 04:23:09;;;;;;;5.97;4.40;;;;;;;;;;4990045;28;20036;-76
2022/05/11 04:25:35;;;;;;;5.45;4.85;;;;;;;;;;4992635;28;20034;-75
2022/05/11 04:28:02;;;;;;;5.82;4.57;;;;;;;;;;4992791;28;20455;-75
2022/05/11 04:30:31;;;;;;;6.82;5.50;;;;;;;;;;4990010;28;20046;-76
2022/05/11 04:32:58;;;;;;;5.72;4.78;;;;;;;;;;4991508;28;20557;-75
2022/05/11 04:35:23;;;;;;;6.05;4.82;;;;;;;;;;4993067;28;20097;-75
2022/05/11 04:37:49;;;;;;;6.78;5.20;;;;;;;;;;5009192;28;20121;-74
2022/05/11 04:40:15;;;;;;;7.22;4.90;;;;;;;;;;4990988;28;20054;-76
2022/05/11 04:42:42;;;;;;;6.70;5.00;;;;;;;;;;4989990;28;20101;-75
2022/05/11 04:45:08;;;;;;;6.22;4.90;;;;;;;;;;4990934;28;20034;-76
2022/05/11 04:47:34;;;;;;;5.90;4.75;;;;;;;;;;4991611;28;20026;-75
2022/05/11 04:49:59;;;;;;;6.22;5.13;;;;;;;;;;4992881;28;20112;-76
2022/05/11 04:52:24;;;;;;;6.50;5.10;;;;;;;;;;5009454;28;20038;-76
2022/05/11 04:54:50;;;;;;;6.75;4.55;;;;;;;;;;4987952;28;20034;-75
2022/05/11 04:57:17;;;;;;;6.60;4.65;;;;;;;;;;4992915;28;20092;-77
2022/05/11 04:59:43;;;;;;;8.90;4.63;;;;;;;;;;5008359;28;20112;-76
2022/05/11 05:02:15;;;;;;;6.95;4.78;;;;;;;;;;4990750;28;20621;-74
2022/05/11 05:04:40;;;;;;;5.83;4.90;;;;;;;;;;4989116;28;20121;-73
2022/05/11 05:07:06;;;;;;;7.88;4.85;;;;;;;;;;4988970;28;20617;-75
2022/05/11 05:09:31;;;;;;;6.82;4.88;;;;;;;;;;4991365;28;20042;-76
2022/05/11 05:11:56;;;;;;;7.00;5.15;;;;;;;;;;4991142;28;20045;-76
2022/05/11 05:14:22;;;;;;;8.82;5.40;;;;;;;;;;4991068;28;20041;-75
2022/05/11 05:16:48;;;;;;;8.55;5.55;;;;;;;;;;4991826;28;20398;-75
2022/05/11 05:19:15;;;;;;;6.28;4.68;;;;;;;;;;4990019;28;20110;-77
2022/05/11 05:21:41;;;;;;;7.65;5.68;;;;;;;;;;4990577;28;20517;-75
2022/05/11 05:24:07;;;;;;;7.65;5.50;;;;;;;;;;4990557;28;20042;-76
2022/05/11 05:26:32;;;;;;;7.63;5.70;;;;;;;;;;4991739;28;20109;-75
2022/05/11 05:31:42;;;;;;;9.20;5.38;;;;;;;;;;4991689;28;20044;-75
2022/05/11 05:34:07;;;;;;;7.45;5.07;;;;;;;;;;4991379;28;20121;-75
2022/05/11 05:36:38;;;;;;;7.88;5.68;;;;;;;;;;4990535;28;20093;-75
2022/05/11 05:39:05;;;;;;;8.32;4.80;;;;;;;;;;4991715;28;20034;-76
2022/05/11 05:41:31;;;;;;;12.20;6.15;;;;;;;;;;4994060;28;20490;-75
2022/05/11 05:43:57;;;;;;;9.27;5.30;;;;;;;;;;4992725;28;20038;-76
2022/05/11 05:46:22;;;;;;;7.22;5.40;;;;;;;;;;4991581;28;20036;-76
2022/05/11 05:48:48;;;;;;;6.60;5.90;;;;;;;;;;4986285;28;20418;-76
2022/05/11 05:51:16;;;;;;;13.43;5.78;;;;;;;;;;4989555;28;20042;-76
2022/05/11 05:53:41;;;;;;;11.38;5.90;;;;;;;;;;4992252;28;20303;-75
2022/05/11 05:56:09;;;;;;;10.45;6.75;;;;;;;;;;4987157;28;20022;-76
2022/05/11 05:58:35;;;;;;;9.30;6.25;;;;;;;;;;4991432;28;20050;-76
2022/05/11 06:01:00;;;;;;;9.45;6.38;;;;;;;;;;4991144;28;20157;-76
2022/05/11 06:03:29;;;;;;;10.98;7.05;;;;;;;;;;4990388;28;20073;-76
2022/05/11 06:05:54;;;;;;;13.23;7.53;;;;;;;;;;4988120;28;20037;-74
2022/05/11 06:08:21;;;;;;;9.88;6.95;;;;;;;;;;4988858;28;20335;-76
2022/05/11 06:10:47;;;;;;;19.73;8.50;;;;;;;;;;4992775;28;20486;-75
2022/05/11 06:13:14;;;;;;;15.52;7.65;;;;;;;;;;4989891;28;20039;-75
2022/05/11 06:15:41;;;;;;;24.42;7.97;;;;;;;;;;4990353;28;20156;-74
2022/05/11 06:18:08;;;;;;;28.17;9.18;;;;;;;;;;4989128;28;20506;-74
2022/05/11 06:20:34;;;;;;;25.67;9.27;;;;;;;;;;4988584;28;20497;-74
2022/05/11 06:23:00;;;;;;;29.10;9.32;;;;;;;;;;4989237;28;20038;-75
2022/05/11 06:25:26;;;;;;;29.13;9.82;;;;;;;;;;4990053;28;20130;-73
2022/05/11 06:27:51;;;;;;;15.18;9.93;;;;;;;;;;4993261;28;20165;-75
2022/05/11 06:30:17;;;;;;;23.10;9.15;;;;;;;;;;4993167;28;20133;-75
2022/05/11 06:32:42;;;;;;;24.10;8.35;;;;;;;;;;4992082;28;20018;-73
2022/05/11 06:35:08;;;;;;;22.88;7.93;;;;;;;;;;4990101;28;20390;-75
2022/05/11 06:37:33;;;;;;;10.77;7.10;;;;;;;;;;4992244;28;20169;-75
2022/05/11 06:39:59;;;;;;;13.82;6.28;;;;;;;;;;4991246;28;20038;-75
2022/05/11 06:42:24;;;;;;;9.18;6.10;;;;;;;;;;4990528;28;20498;-74
2022/05/11 06:44:50;;;;;;;14.80;6.82;;;;;;;;;;4993253;28;20109;-75
2022/05/11 06:47:20;;;;;;;9.82;6.47;;;;;;;;;;4988085;28;20030;-74
2022/05/11 06:49:46;;;;;;;9.10;6.15;;;;;;;;;;4991880;28;20038;-74
2022/05/11 06:52:11;;;;;;;18.90;6.15;;;;;;;;;;4985483;28;20513;-75
2022/05/11 07:00:06;;;;;;;9.90;6.07;;;;;;;;;;4989911;28;20112;-75
2022/05/11 07:02:37;;;;;;;8.75;6.05;;;;;;;;;;4989073;28;20049;-73
2022/05/11 07:05:04;;;;;;;7.00;5.65;;;;;;;;;;4987009;28;20038;-73
2022/05/11 07:07:29;;;;;;;8.18;5.95;;;;;;;;;;4986137;28;20506;-73
2022/05/11 07:09:54;;;;;;;8.02;5.50;;;;;;;;;;4987146;28;20172;-74
2022/05/11 07:12:21;;;;;;;9.85;5.47;;;;;;;;;;4987857;28;20038;-76
2022/05/11 07:15:08;;;;;;;9.23;5.55;;;;;;;;;;4984851;28;20433;-75
2022/05/11 07:17:39;;;;;;;10.48;5.85;;;;;;;;;;4988081;28;20041;-74
2022/05/11 07:20:18;;;;;;;16.13;5.43;;;;;;;;;;4987115;28;20092;-74
2022/05/11 07:22:44;;;;;;;6.90;5.35;;;;;;;;;;4983500;28;20042;-73
2022/05/11 07:25:13;;;;;;;8.82;5.50;;;;;;;;;;4987262;28;20046;-75
2022/05/11 07:27:39;;;;;;;9.52;5.55;;;;;;;;;;4988010;28;20041;-74
2022/05/11 07:30:07;;;;;;;16.27;6.10;;;;;;;;;;4988261;28;20030;-74
2022/05/11 07:32:33;;;;;;;10.50;5.57;;;;;;;;;;4989194;28;20135;-73
2022/05/11 07:34:58;;;;;;;8.70;5.80;;;;;;;;;;4989327;28;20062;-74
2022/05/11 07:37:23;;;;;;;10.18;6.05;;;;;;;;;;4988831;28;20498;-74
2022/05/11 07:39:49;;;;;;;11.45;5.50;;;;;;;;;;4990615;28;20399;-74
2022/05/11 07:42:16;;;;;;;7.78;5.45;;;;;;;;;;4991632;28;20522;-74
2022/05/11 07:44:42;;;;;;;7.70;5.80;;;;;;;;;;4986083;28;20470;-76
2022/05/11 07:47:10;;;;;;;8.43;5.72;;;;;;;;;;4990392;28;20018;-75
2022/05/11 07:49:36;;;;;;;8.68;5.88;;;;;;;;;;4989553;28;20037;-73
2022/05/11 07:52:01;;;;;;;7.75;6.07;;;;;;;;;;4990250;28;20133;-75
2022/05/11 07:54:26;;;;;;;9.52;6.55;;;;;;;;;;4990161;28;20041;-75
2022/05/11 07:59:52;;;;;;;10.88;6.38;;;;;;;;;;4937795;28;20044;-74
2022/05/11 08:02:21;;;;;;;10.52;6.85;;;;;;;;;;4990350;28;20070;-74
2022/05/11 08:04:46;;;;;;;9.02;6.05;;;;;;;;;;4992102;28;20031;-75
2022/05/11 08:07:15;;;;;;;10.98;5.53;;;;;;;;;;4987371;28;20038;-75
2022/05/11 08:09:41;;;;;;;15.93;6.53;;;;;;;;;;4990987;28;20042;-74
2022/05/11 08:12:07;;;;;;;7.45;5.40;;;;;;;;;;4991280;28;20045;-74
2022/05/11 08:14:33;;;;;;;6.32;5.70;;;;;;;;;;4989807;28;20691;-75
2022/05/11 08:16:59;;;;;;;9.40;5.63;;;;;;;;;;4990690;28;20041;-75
2022/05/11 08:19:26;;;;;;;8.73;5.32;;;;;;;;;;4990487;28;20034;-74
2022/05/11 08:21:54;;;;;;;9.88;4.97;;;;;;;;;;4983009;28;20038;-75
2022/05/11 08:24:21;;;;;;;7.40;5.18;;;;;;;;;;4986936;28;20039;-74
2022/05/11 08:26:47;;;;;;;9.98;5.53;;;;;;;;;;4988327;28;20026;-75
2022/05/11 08:33:19;;;;;;;9.13;5.22;;;;;;;;;;4989027;28;20046;-75
2022/05/11 08:34:44;;;;;;;5.82;4.22;;;;;;;;;;4986068;28;20050;-75
2022/05/11 08:37:10;;;;;;;7.95;4.60;;;;;;;;;;4987485;28;20035;-75
2022/05/11 08:39:35;;;;;;;9.60;3.92;;;;;;;;;;4986261;28;20034;-74
2022/05/11 08:42:02;;;;;;;7.20;4.13;;;;;;;;;;4985180;28;20053;-74
2022/05/11 08:44:32;;;;;;;4.82;3.70;;;;;;;;;;4991399;28;20406;-74
2022/05/11 08:47:34;;;;;;;6.53;3.60;;;;;;;;;;4990180;28;20049;-75
2022/05/11 08:50:10;;;;;;;4.72;3.88;;;;;;;;;;4987978;28;20502;-75
2022/05/11 08:52:54;;;;;;;8.25;3.78;;;;;;;;;;4989034;28;20133;-73
2022/05/11 08:55:47;;;;;;;5.28;3.70;;;;;;;;;;4985361;28;20126;-74
2022/05/11 08:58:22;;;;;;;5.43;3.63;;;;;;;;;;4987621;28;20043;-73
2022/05/11 09:00:49;;;;;;;6.93;3.70;;;;;;;;;;4989077;28;20061;-74
2022/05/11 09:03:31;;;;;;;6.30;3.92;;;;;;;;;;4988163;28;20042;-75
2022/05/11 09:06:02;;;;;;;6.20;3.65;;;;;;;;;;4986416;28;20018;-74
2022/05/11 09:08:32;;;;;;;10.43;3.03;;;;;;;;;;4986592;28;20026;-74
2022/05/11 09:10:58;;;;;;;6.18;3.60;;;;;;;;;;4984754;28;20525;-74
2022/05/11 09:13:27;;;;;;;4.47;3.00;;;;;;;;;;4986787;28;20077;-74
2022/05/11 09:15:55;;;;;;;4.22;3.05;;;;;;;;;;4988922;28;20104;-75
2022/05/11 09:18:30;;;;;;;4.93;3.05;;;;;;;;;;4988588;28;20117;-74
2022/05/11 09:20:56;;;;;;;5.30;3.03;;;;;;;;;;4988821;28;20054;-74
2022/05/11 09:23:36;;;;;;;4.47;3.50;;;;;;;;;;4987785;28;20072;-74
2022/05/11 09:26:05;;;;;;;3.97;2.67;;;;;;;;;;4989859;28;20035;-73
2022/05/11 09:28:33;;;;;;;5.45;2.88;;;;;;;;;;4989623;28;20034;-72
2022/05/11 09:31:01;;;;;;;5.05;3.08;;;;;;;;;;4989138;28;20038;-74
2022/05/11 09:33:38;;;;;;;3.67;2.60;;;;;;;;;;4988766;28;20567;-74
2022/05/11 09:36:06;;;;;;;7.20;2.85;;;;;;;;;;4985356;28;20562;-73
2022/05/11 09:38:36;;;;;;;3.08;2.70;;;;;;;;;;4989994;28;20026;-73
2022/05/11 09:41:17;;;;;;;6.88;2.40;;;;;;;;;;4986002;28;20526;-75
2022/05/11 09:43:46;;;;;;;3.83;2.80;;;;;;;;;;4988544;28;20030;-75
2022/05/11 09:46:14;;;;;;;3.95;2.67;;;;;;;;;;4986785;28;20526;-74
2022/05/11 09:48:40;;;;;;;6.75;2.92;;;;;;;;;;4985783;28;20224;-74
2022/05/11 09:51:26;;;;;;;4.28;2.63;;;;;;;;;;4987568;28;20108;-72
2022/05/11 09:53:54;;;;;;;3.08;2.50;;;;;;;;;;4987772;28;20038;-74
2022/05/11 09:56:26;;;;;;;4.38;2.60;;;;;;;;;;4987704;28;20049;-73
2022/05/11 09:58:51;;;;;;;2.90;2.33;;;;;;;;;;4986849;28;20045;-75
2022/05/11 10:01:25;;;;;;;3.53;2.45;;;;;;;;;;4986337;28;20038;-73
2022/05/11 10:03:55;;;;;;;2.40;2.20;;;;;;;;;;4986747;28;20128;-75
2022/05/11 10:06:23;;;;;;;4.15;2.75;;;;;;;;;;4985197;28;20586;-74
2022/05/11 10:08:51;;;;;;;2.45;2.22;;;;;;;;;;4987780;28;20121;-75
2022/05/11 10:11:25;;;;;;;5.47;2.40;;;;;;;;;;4984656;28;20091;-74
2022/05/11 10:14:01;;;;;;;4.57;2.20;;;;;;;;;;4985861;28;20040;-74
2022/05/11 10:22:40;;;;;;;4.55;2.40;;;;;;;;;;4983976;28;20045;-74
2022/05/11 10:25:24;;;;;;;3.10;1.80;;;;;;;;;;4986426;28;20075;-75
2022/05/11 10:28:23;;;;;;;2.78;1.80;;;;;;;;;;4981934;28;20113;-75
2022/05/11 10:30:52;;;;;;;3.70;1.83;;;;;;;;;;4988142;28;20046;-75
2022/05/11 10:33:42;;;;;;;3.10;1.92;;;;;;;;;;4984269;28;20438;-74
2022/05/11 10:36:32;;;;;;;2.47;1.85;;;;;;;;;;4990640;28;20038;-74
2022/05/11 10:39:09;;;;;;;4.97;1.90;;;;;;;;;;4986768;28;20030;-75
2022/05/11 10:41:54;;;;;;;8.38;2.05;;;;;;;;;;5006066;28;20664;-75
2022/05/11 10:44:47;;;;;;;7.03;2.47;;;;;;;;;;4991976;28;20073;-75
2022/05/11 10:47:33;;;;;;;5.55;1.92;;;;;;;;;;4989028;28;20038;-74
2022/05/11 10:50:16;;;;;;;8.43;2.08;;;;;;;;;;4989783;28;20542;-76
2022/05/11 10:53:19;;;;;;;6.85;2.22;;;;;;;;;;4991747;28;20030;-72
2022/05/11 10:56:16;;;;;;;6.72;2.00;;;;;;;;;;4986361;28;20058;-72
2022/05/11 10:59:15;;;;;;;3.42;2.00;;;;;;;;;;4987477;28;20045;-72
2022/05/11 11:01:56;;;;;;;2.80;2.10;;;;;;;;;;4989536;28;20031;-72
2022/05/11 11:04:32;;;;;;;7.90;2.53;;;;;;;;;;4987736;28;20038;-72
2022/05/11 11:07:14;;;;;;;6.97;2.33;;;;;;;;;;4987402;28;20093;-73
2022/05/11 11:09:59;;;;;;;12.53;2.50;;;;;;;;;;4986292;28;20046;-71
2022/05/11 11:12:36;;;;;;;11.48;2.20;;;;;;;;;;4986720;28;20272;-71
2022/05/11 11:15:07;;;;;;;7.95;1.90;;;;;;;;;;4986591;28;20046;-71
2022/05/11 11:17:33;;;;;;;10.05;2.40;;;;;;;;;;5003318;28;20470;-70
2022/05/11 11:20:06;;;;;;;7.07;2.13;;;;;;;;;;4988658;28;20045;-70
2022/05/11 11:23:08;;;;;;;9.30;2.10;;;;;;;;;;4988290;28;20121;-69
2022/05/11 11:25:43;;;;;;;3.97;2.30;;;;;;;;;;4988560;28;20066;-69
2022/05/11 11:28:12;;;;;;;7.10;2.65;;;;;;;;;;4985195;28;20462;-71
2022/05/11 11:30:39;;;;;;;7.32;2.35;;;;;;;;;;4986717;28;20472;-71
2022/05/11 11:33:10;;;;;;;3.85;1.98;;;;;;;;;;4989783;28;20034;-71
2022/05/11 11:36:01;;;;;;;7.57;1.87;;;;;;;;;;4985865;28;20036;-72
2022/05/11 11:38:46;;;;;;;5.15;2.20;;;;;;;;;;4989066;28;20042;-71
2022/05/11 11:41:19;;;;;;;5.60;2.15;;;;;;;;;;4987759;28;20038;-70
2022/05/11 11:43:50;;;;;;;4.55;2.00;;;;;;;;;;4990870;28;20038;-71
2022/05/11 11:46:38;;;;;;;5.03;1.98;;;;;;;;;;4988928;28;20045;-70
2022/05/11 11:49:19;;;;;;;4.40;2.00;;;;;;;;;;4988847;28;20096;-70
2022/05/11 11:52:06;;;;;;;5.47;2.00;;;;;;;;;;4989804;28;20050;-71
2022/05/11 11:54:38;;;;;;;4.43;2.22;;;;;;;;;;4988407;28;20034;-70
2022/05/11 11:57:03;;;;;;;5.68;2.00;;;;;;;;;;4990343;28;20042;-70
2022/05/11 11:59:28;;;;;;;3.97;2.80;;;;;;;;;;4989900;28;20041;-71
2022/05/11 12:02:05;;;;;;;8.73;2.63;;;;;;;;;;4989131;28;20069;-70
2022/05/11 12:05:05;;;;;;;3.90;2.30;;;;;;;;;;4989831;28;20082;-71
2022/05/11 12:16:52;;;;;;;4.57;2.25;;;;;;;;;;4990950;28;20077;-70
2022/05/11 12:19:17;;;;;;;12.23;2.30;;;;;;;;;;4993213;28;20122;-71
2022/05/11 12:22:13;;;;;;;4.00;2.03;;;;;;;;;;4992970;28;20120;-71
2022/05/11 12:25:09;;;;;;;6.18;2.20;;;;;;;;;;4992923;28;20108;-70
2022/05/11 12:27:36;;;;;;;3.38;2.00;;;;;;;;;;4990993;28;20520;-70
2022/05/11 12:30:15;;;;;;;4.57;1.90;;;;;;;;;;4993117;28;20509;-71
2022/05/11 12:32:50;;;;;;;3.95;2.00;;;;;;;;;;4990321;28;20732;-71
2022/05/11 12:35:38;;;;;;;2.85;2.20;;;;;;;;;;4989552;28;20070;-70
2022/05/11 12:38:06;;;;;;;6.25;2.15;;;;;;;;;;4991452;28;20434;-70
2022/05/11 12:40:39;;;;;;;8.15;2.28;;;;;;;;;;4989761;28;20042;-69
2022/05/11 12:43:15;;;;;;;5.15;2.10;;;;;;;;;;4990183;28;20046;-71
2022/05/11 12:45:46;;;;;;;13.18;2.55;;;;;;;;;;4987705;28;20538;-71
2022/05/11 12:48:22;;;;;;;5.20;1.92;;;;;;;;;;4992791;28;20034;-70
2022/05/11 12:50:53;;;;;;;7.05;2.10;;;;;;;;;;4990626;28;20034;-70
2022/05/11 12:53:22;;;;;;;4.82;2.00;;;;;;;;;;4990787;28;20088;-71
2022/05/11 12:55:51;;;;;;;2.72;1.95;;;;;;;;;;4988582;28;20042;-70
2022/05/11 12:58:23;;;;;;;7.75;2.10;;;;;;;;;;4991765;28;20041;-70
2022/05/11 13:00:57;;;;;;;6.43;2.42;;;;;;;;;;4989685;28;20176;-72
2022/05/11 13:03:30;;;;;;;7.28;2.30;;;;;;;;;;4990177;28;20042;-70
2022/05/11 13:06:28;;;;;;;8.27;1.95;;;;;;;;;;4993165;28;20023;-70
2022/05/11 13:09:02;;;;;;;7.28;2.33;;;;;;;;;;4983811;28;20042;-70
2022/05/11 13:11:28;;;;;;;3.63;3.03;;;;;;;;;;4988555;28;20038;-70
2022/05/11 13:13:57;;;;;;;5.68;2.30;;;;;;;;;;4989113;28;20046;-70
2022/05/11 13:16:34;;;;;;;4.90;2.10;;;;;;;;;;4991571;28;20041;-70
2022/05/11 13:19:29;;;;;;;6.93;2.20;;;;;;;;;;4990507;28;20031;-70
2022/05/11 13:21:58;;;;;;;7.38;2.28;;;;;;;;;;4986397;28;20042;-72
2022/05/11 13:24:38;;;;;;;11.90;2.40;;;;;;;;;;4990869;28;20113;-70
2022/05/11 13:27:32;;;;;;;8.13;2.47;;;;;;;;;;4991158;28;20505;-70
2022/05/11 13:30:11;;;;;;;5.25;2.00;;;;;;;;;;4989977;28;20022;-71
2022/05/11 13:32:40;;;;;;;11.23;2.13;;;;;;;;;;4995318;28;20370;-69
2022/05/11 13:35:14;;;;;;;10.95;2.20;;;;;;;;;;4993451;28;20121;-69
2022/05/11 13:37:39;;;;;;;7.65;2.00;;;;;;;;;;4996103;28;20042;-69
2022/05/11 13:40:05;;;;;;;5.85;1.80;;;;;;;;;;4993501;28;20060;-71
2022/05/11 13:42:31;;;;;;;5.47;1.98;;;;;;;;;;4991843;28;20482;-68
2022/05/11 13:45:04;;;;;;;7.50;2.00;;;;;;;;;;4990725;28;20066;-72
2022/05/11 13:50:36;;;;;;;9.38;2.20;;;;;;;;;;4992046;28;20114;-69
2022/05/11 13:53:06;;;;;;;5.40;2.33;;;;;;;;;;4988090;28;20557;-70
2022/05/11 13:55:38;;;;;;;3.63;2.10;;;;;;;;;;4988260;28;20293;-70
2022/05/11 13:58:31;;;;;;;4.50;1.80;;;;;;;;;;4992160;28;20046;-70
2022/05/11 14:01:04;;;;;;;6.25;2.13;;;;;;;;;;4990603;28;20031;-71
2022/05/11 14:03:33;;;;;;;7.20;2.22;;;;;;;;;;4991559;28;20046;-70
2022/05/11 14:06:02;;;;;;;5.45;2.00;;;;;;;;;;4993864;28;20050;-69
2022/05/11 14:08:28;;;;;;;6.32;2.17;;;;;;;;;;4993164;28;20045;-70
2022/05/11 14:10:53;;;;;;;5.00;1.90;;;;;;;;;;4992383;28;20422;-70
2022/05/11 14:13:21;;;;;;;4.38;1.92;;;;;;;;;;4992435;28;20450;-72
2022/05/11 14:15:47;;;;;;;3.30;2.00;;;;;;;;;;4989947;28;20038;-69
2022/05/11 14:18:16;;;;;;;11.73;2.10;;;;;;;;;;4991366;28;20046;-68
2022/05/11 14:20:42;;;;;;;22.75;3.03;;;;;;;;;;4990727;28;20141;-70
2022/05/11 14:23:08;;;;;;;4.63;2.03;;;;;;;;;;4975518;28;20401;-71
2022/05/11 14:25:34;;;;;;;5.90;2.22;;;;;;;;;;4989622;28;20352;-69
2022/05/11 14:27:59;;;;;;;6.18;2.17;;;;;;;;;;4991025;28;20034;-69
2022/05/11 14:30:25;;;;;;;6.22;2.17;;;;;;;;;;4988726;28;20494;-69
2022/05/11 14:32:52;;;;;;;4.82;1.85;;;;;;;;;;4991922;28;20033;-70
2022/05/11 14:35:24;;;;;;;5.97;1.98;;;;;;;;;;4989260;28;20122;-69
2022/05/11 14:37:49;;;;;;;;;;;;;;;;;;4987683;28;20042;-70
2022/05/11 14:40:24;;;;;;;5.57;2.00;;;;;;;;;;4991011;28;19917;-72
2022/05/11 14:42:50;;;;;;;5.10;2.20;;;;;;;;;;4991121;28;20434;-71
2022/05/11 14:45:16;;;;;;;4.22;1.83;;;;;;;;;;4992718;28;20088;-70
2022/05/11 14:47:46;;;;;;;7.40;1.95;;;;;;;;;;4992828;28;20478;-71
2022/05/11 14:50:17;;;;;;;5.55;1.90;;;;;;;;;;4990083;28;20117;-69
2022/05/11 14:52:43;;;;;;;4.80;1.65;;;;;;;;;;4987836;28;20042;-69
2022/05/11 14:55:08;;;;;;;9.48;2.28;;;;;;;;;;4988658;28;20046;-72
2022/05/11 15:03:02;;;;;;;4.70;1.80;;;;;;;;;;4983252;28;20057;-70
2022/05/11 15:05:27;;;;;;;3.55;1.77;;;;;;;;;;4988161;28;20023;-70
2022/05/11 15:07:53;;;;;;;7.47;1.83;;;;;;;;;;4986068;28;20045;-69
2022/05/11 15:10:18;;;;;;;5.05;1.95;;;;;;;;;;4984029;28;20573;-69
2022/05/11 15:15:28;;;;;;;12.85;2.33;;;;;;;;;;4984480;28;20061;-70
2022/05/11 15:17:54;;;;;;;3.50;1.70;;;;;;;;;;4989018;28;20137;-69
2022/05/11 15:20:22;;;;;;;4.03;1.80;;;;;;;;;;4986481;28;20125;-69
2022/05/11 15:22:48;;;;;;;2.38;1.75;;;;;;;;;;4986961;28;20049;-68
2022/05/11 15:25:16;;;;;;;7.90;2.20;;;;;;;;;;4985008;28;21829;-70
2022/05/11 15:27:42;;;;;;;4.30;1.98;;;;;;;;;;4986018;28;20050;-72
2022/05/11 15:30:08;;;;;;;4.30;2.20;;;;;;;;;;4983781;28;20117;-69
2022/05/11 15:32:33;;;;;;;6.20;2.17;;;;;;;;;;4985482;28;20438;-72
2022/05/11 15:34:59;;;;;;;5.40;2.13;;;;;;;;;;4985582;28;20046;-68
2022/05/11 15:37:25;;;;;;;14.88;2.17;;;;;;;;;;4985077;28;20031;-71
2022/05/11 15:39:51;;;;;;;4.45;2.15;;;;;;;;;;4987941;28;20057;-70
2022/05/11 15:42:23;;;;;;;9.63;2.58;;;;;;;;;;4985879;28;20489;-69
2022/05/11 15:44:50;;;;;;;6.45;2.05;;;;;;;;;;4986503;28;20430;-71